Terminal Aerodrome Forecast
Issued by NWS

Home | Current Version | Previous Version | Text Only | Print | Product List | Glossary On
Versions: 1 2 3 4 5 6 7 8 9 10 11 12 13 14 15 16 17
025
FTUS43 KABR 191121
TAFPIR
TAF
KPIR 191121Z 1912/2012 VRB03KT P6SM SKC
     FM191800 14007KT P6SM SCT250
     FM192200 14011KT P6SM FEW250
     FM200200 12008KT P6SM BKN250=

USA.gov is the U.S. government's official web portal to all federal, state and local government web resources and services.